createdAt,value
2022-08-03T00:00:52.459Z,96710.06
2022-08-03T00:01:54.179Z,96711.50
2022-08-03T00:02:55.869Z,96709.78
2022-08-03T00:03:57.749Z,96708.94
2022-08-03T00:04:59.380Z,96708.28
2022-08-03T00:06:04.185Z,96706.47
2022-08-03T00:07:06.620Z,96700.66
2022-08-03T00:08:08.187Z,96712.34
2022-08-03T00:09:11.377Z,96710.06
2022-08-03T00:10:13.793Z,96705.47
2022-08-03T00:11:15.387Z,96708.56
2022-08-03T00:12:17.373Z,96711.63
2022-08-03T00:13:19.922Z,96701.38
2022-08-03T00:14:21.509Z,96707.84
2022-08-03T00:15:23.189Z,96703.44
2022-08-03T00:16:27.582Z,96698.28
2022-08-03T00:17:29.375Z,96697.06
2022-08-03T00:18:31.194Z,96700.53
2022-08-03T00:19:32.754Z,96703.19
2022-08-03T00:20:34.956Z,96699.56
2022-08-03T00:21:37.525Z,96703.38
2022-08-03T00:22:39.272Z,96708.31
2022-08-03T00:23:51.301Z,96694.63
2022-08-03T00:24:54.251Z,96697.25
2022-08-03T00:25:56.259Z,96699.50
2022-08-03T00:26:57.829Z,96703.34
2022-08-03T00:27:59.443Z,96705.59
2022-08-03T00:29:01.115Z,96704.09
2022-08-03T00:30:02.808Z,96707.25
2022-08-03T00:31:04.406Z,96709.50
2022-08-03T00:32:06.255Z,96705.59
2022-08-03T00:33:11.567Z,96703.84
2022-08-03T00:34:13.158Z,96714.22
2022-08-03T00:35:36.552Z,96713.63
2022-08-03T00:36:36.694Z,96709.50
2022-08-03T00:37:40.717Z,96710.00
2022-08-03T00:38:42.701Z,96703.56
2022-08-03T00:39:46.262Z,96706.00
2022-08-03T00:40:47.840Z,96706.91
2022-08-03T00:41:49.427Z,96709.31
2022-08-03T00:42:51.019Z,96707.84
2022-08-03T00:43:52.703Z,96702.06
2022-08-03T00:44:54.282Z,96709.41
2022-08-03T00:45:57.096Z,96711.84
2022-08-03T00:46:58.763Z,96715.06
2022-08-03T00:48:03.911Z,96710.38
2022-08-03T00:49:05.540Z,96714.66
2022-08-03T00:50:07.399Z,96708.16
2022-08-03T00:51:09.164Z,96714.41
2022-08-03T00:52:11.303Z,96710.84
2022-08-03T00:53:13.548Z,96706.50
2022-08-03T00:54:15.898Z,96708.81
2022-08-03T00:55:18.035Z,96713.78
2022-08-03T00:56:19.734Z,96721.19
2022-08-03T00:57:21.397Z,96720.38
2022-08-03T00:58:24.203Z,96716.03
2022-08-03T00:59:25.886Z,96715.59
2022-08-03T01:00:28.261Z,96716.69
2022-08-03T01:01:32.388Z,96718.53
2022-08-03T01:02:35.082Z,96716.19
2022-08-03T01:03:36.750Z,96718.53
2022-08-03T01:04:38.392Z,96720.09
2022-08-03T01:05:51.864Z,96725.81
2022-08-03T01:07:10.659Z,96719.09
2022-08-03T01:08:52.446Z,96715.88
2022-08-03T01:10:05.950Z,96723.59
2022-08-03T01:11:29.097Z,96725.50
2022-08-03T01:12:44.389Z,96721.97
2022-08-03T01:14:18.077Z,96723.88
2022-08-03T01:15:41.015Z,96721.28
2022-08-03T01:17:02.777Z,96723.63
2022-08-03T01:18:46.385Z,96729.84
2022-08-03T01:19:57.837Z,96722.09
2022-08-03T01:21:03.924Z,96721.47
2022-08-03T01:22:40.188Z,96724.38
2022-08-03T01:24:35.135Z,96728.16
2022-08-03T01:25:54.527Z,96727.19
2022-08-03T01:27:07.204Z,96728.09
2022-08-03T01:28:53.189Z,96733.34
2022-08-03T01:29:59.830Z,96741.22
2022-08-03T01:31:06.587Z,96739.00
2022-08-03T01:32:58.119Z,96738.34
2022-08-03T01:33:49.923Z,96735.31
2022-08-03T01:34:59.027Z,96732.25
2022-08-03T01:36:07.541Z,96726.47
2022-08-03T01:37:12.305Z,96728.41
2022-08-03T01:38:18.227Z,96733.06
2022-08-03T01:39:22.082Z,96729.94
2022-08-03T01:40:27.414Z,96720.66
2022-08-03T01:41:35.447Z,96725.69
2022-08-03T01:42:39.963Z,96727.63
2022-08-03T01:44:28.204Z,96726.06
2022-08-03T01:45:10.949Z,96728.38
2022-08-03T01:46:13.544Z,96725.66
2022-08-03T01:47:19.983Z,96736.91
2022-08-03T01:48:22.070Z,96727.94
2022-08-03T01:49:25.692Z,96722.84
2022-08-03T01:50:30.263Z,96724.34
2022-08-03T01:52:02.831Z,96726.66
2022-08-03T01:52:56.467Z,96727.88
2022-08-03T01:54:00.583Z,96723.97
2022-08-03T01:55:03.685Z,96719.69
2022-08-03T01:56:07.176Z,96724.38
2022-08-03T01:57:10.008Z,96720.91
2022-08-03T01:58:14.019Z,96725.94
2022-08-03T01:59:18.843Z,96718.97
2022-08-03T02:00:20.603Z,96720.13
2022-08-03T02:01:24.114Z,96724.38
2022-08-03T02:02:33.379Z,96720.88
2022-08-03T02:03:59.516Z,96727.44
2022-08-03T02:05:05.908Z,96720.41
2022-08-03T02:06:59.926Z,96723.91
2022-08-03T02:07:36.457Z,96726.59
2022-08-03T02:08:40.651Z,96725.78
2022-08-03T02:09:45.124Z,96729.63
2022-08-03T02:10:48.757Z,96727.25
2022-08-03T02:11:52.338Z,96728.72
2022-08-03T02:12:54.767Z,96730.25
2022-08-03T02:13:58.611Z,96724.34
2022-08-03T02:15:01.974Z,96724.69
2022-08-03T02:16:04.962Z,96730.09
2022-08-03T02:17:08.136Z,96719.59
2022-08-03T02:18:11.165Z,96716.81
2022-08-03T02:19:13.835Z,96727.28
2022-08-03T02:20:16.376Z,96726.84
2022-08-03T02:21:55.675Z,96721.41
2022-08-03T02:22:41.571Z,96729.22
2022-08-03T02:23:43.315Z,96726.50
2022-08-03T02:24:45.168Z,96729.22
2022-08-03T02:25:57.739Z,96728.03
2022-08-03T02:27:05.585Z,96729.97
2022-08-03T02:28:12.273Z,96736.22
2022-08-03T02:29:21.587Z,96729.63
2022-08-03T02:30:45.571Z,96728.47
2022-08-03T02:31:50.423Z,96726.94
2022-08-03T02:32:55.906Z,96724.25
2022-08-03T02:34:03.800Z,96726.59
2022-08-03T02:35:09.574Z,96728.97
2022-08-03T02:36:14.191Z,96731.69
2022-08-03T02:37:19.173Z,96732.47
2022-08-03T02:38:26.227Z,96733.25
2022-08-03T02:39:31.436Z,96734.03
2022-08-03T02:40:33.387Z,96735.25
2022-08-03T02:41:43.670Z,96728.66
2022-08-03T02:42:46.639Z,96732.13
2022-08-03T02:44:05.510Z,96730.59
2022-08-03T02:45:14.029Z,96733.41
2022-08-03T02:46:19.758Z,96732.59
2022-08-03T02:47:22.614Z,96733.34
2022-08-03T02:48:28.638Z,96736.84
2022-08-03T02:49:41.138Z,96724.38
2022-08-03T02:50:53.919Z,96730.22
2022-08-03T02:51:57.512Z,96729.47
2022-08-03T02:53:01.352Z,96724.03
2022-08-03T02:54:04.899Z,96726.31
2022-08-03T02:55:09.133Z,96731.00
2022-08-03T02:56:11.843Z,96731.44
2022-08-03T02:57:15.243Z,96729.56
2022-08-03T02:58:21.187Z,96724.13
2022-08-03T02:59:24.858Z,96735.03
2022-08-03T03:00:28.240Z,96733.81
2022-08-03T03:01:31.569Z,96736.53
2022-08-03T03:02:34.984Z,96733.41
2022-08-03T03:03:44.610Z,96735.00
2022-08-03T03:05:52.602Z,96741.28
2022-08-03T03:06:13.561Z,96737.44
2022-08-03T03:07:17.905Z,96743.66
2022-08-03T03:08:28.337Z,96747.94
2022-08-03T03:09:40.471Z,96741.38
2022-08-03T03:10:44.395Z,96747.56
2022-08-03T03:11:46.382Z,96748.78
2022-08-03T03:12:50.301Z,96751.94
2022-08-03T03:13:52.930Z,96744.94
2022-08-03T03:14:54.617Z,96748.44
2022-08-03T03:15:59.744Z,96740.66
2022-08-03T03:17:02.454Z,96747.25
2022-08-03T03:18:05.385Z,96745.00
2022-08-03T03:19:08.149Z,96750.06
2022-08-03T03:20:10.464Z,96751.63
2022-08-03T03:21:13.118Z,96748.09
2022-08-03T03:22:16.578Z,96747.31
2022-08-03T03:23:20.275Z,96750.78
2022-08-03T03:24:22.080Z,96749.22
2022-08-03T03:25:24.919Z,96746.84
2022-08-03T03:26:27.056Z,96747.22
2022-08-03T03:27:29.739Z,96756.53
2022-08-03T03:28:32.526Z,96752.28
2022-08-03T03:29:39.196Z,96762.34
2022-08-03T03:30:41.376Z,96756.09
2022-08-03T03:31:43.043Z,96759.19
2022-08-03T03:32:45.178Z,96756.81
2022-08-03T03:33:47.640Z,96756.81
2022-08-03T03:34:50.159Z,96756.81
2022-08-03T03:35:53.545Z,96759.94
2022-08-03T03:36:55.139Z,96759.53
2022-08-03T03:37:57.425Z,96763.41
2022-08-03T03:38:59.051Z,96760.69
2022-08-03T03:40:17.327Z,96762.97
2022-08-03T03:41:19.102Z,96763.72
2022-08-03T03:42:23.093Z,96760.63
2022-08-03T03:43:25.048Z,96764.47
2022-08-03T03:44:31.109Z,96762.91
2022-08-03T03:45:34.879Z,96769.16
2022-08-03T03:46:38.882Z,96771.44
2022-08-03T03:47:41.120Z,96767.53
2022-08-03T03:48:42.944Z,96767.47
2022-08-03T03:49:45.411Z,96765.91
2022-08-03T03:50:49.228Z,96760.81
2022-08-03T03:51:56.583Z,96769.34
2022-08-03T03:52:59.009Z,96765.06
2022-08-03T03:54:02.909Z,96769.69
2022-08-03T03:55:04.879Z,96772.03
2022-08-03T03:56:06.553Z,96768.94
2022-08-03T03:57:08.647Z,96765.09
2022-08-03T03:58:15.188Z,96772.94
2022-08-03T03:59:16.800Z,96769.06
2022-08-03T04:00:19.974Z,96776.47
2022-08-03T04:01:21.839Z,96769.53
2022-08-03T04:02:23.681Z,96780.91
2022-08-03T04:03:25.275Z,96765.34
2022-08-03T04:04:45.485Z,96770.09
2022-08-03T04:06:06.036Z,96777.91
2022-08-03T04:07:26.141Z,96767.00
2022-08-03T04:08:46.588Z,96775.66
2022-08-03T04:10:14.839Z,96783.13
2022-08-03T04:11:42.699Z,96778.91
2022-08-03T04:12:50.033Z,96783.22
2022-08-03T04:13:57.241Z,96784.38
2022-08-03T04:15:04.824Z,96782.03
2022-08-03T04:16:10.498Z,96776.63
2022-08-03T04:17:13.680Z,96783.16
2022-08-03T04:18:18.115Z,96773.38
2022-08-03T04:19:35.845Z,96781.84
2022-08-03T04:20:45.612Z,96781.41
2022-08-03T04:21:53.004Z,96787.69
2022-08-03T04:23:00.711Z,96785.28
2022-08-03T04:24:04.368Z,96790.31
2022-08-03T04:25:10.688Z,96793.41
2022-08-03T04:26:14.089Z,96799.94
2022-08-03T04:27:21.041Z,96793.22
2022-08-03T04:28:30.604Z,96792.69
2022-08-03T04:29:38.677Z,96795.31
2022-08-03T04:30:53.509Z,96787.75
2022-08-03T04:31:57.652Z,96798.16
2022-08-03T04:33:01.780Z,96789.47
2022-08-03T04:34:04.248Z,96796.34
2022-08-03T04:35:07.149Z,96793.84
2022-08-03T04:36:10.795Z,96795.31
2022-08-03T04:37:19.348Z,96798.72
2022-08-03T04:38:23.738Z,96798.97
2022-08-03T04:39:27.737Z,96803.47
2022-08-03T04:40:37.812Z,96807.19
2022-08-03T04:42:04.422Z,96803.94
2022-08-03T04:43:03.467Z,96806.91
2022-08-03T04:44:07.113Z,96808.28
2022-08-03T04:45:12.505Z,96818.19
2022-08-03T04:46:15.519Z,96814.38
2022-08-03T04:47:17.337Z,96813.31
2022-08-03T04:48:20.143Z,96812.28
2022-08-03T04:49:22.233Z,96816.19
2022-08-03T04:50:25.014Z,96816.66
2022-08-03T04:51:27.187Z,96814.81
2022-08-03T04:52:32.343Z,96817.75
2022-08-03T04:53:34.363Z,96807.56
2022-08-03T04:54:48.779Z,96806.69
2022-08-03T04:55:52.505Z,96809.78
2022-08-03T04:56:54.326Z,96808.16
2022-08-03T04:57:57.188Z,96814.28
2022-08-03T04:58:58.836Z,96811.06
2022-08-03T05:00:03.421Z,96812.16
2022-08-03T05:01:05.434Z,96807.31
2022-08-03T05:02:07.285Z,96809.66
2022-08-03T05:03:23.803Z,96811.63
2022-08-03T05:04:26.948Z,96813.84
2022-08-03T05:05:49.464Z,96807.28
2022-08-03T05:06:51.112Z,96810.25
2022-08-03T05:07:56.825Z,96809.84
2022-08-03T05:08:58.510Z,96810.22
2022-08-03T05:10:02.858Z,96806.56
2022-08-03T05:11:04.993Z,96814.22
2022-08-03T05:12:07.826Z,96811.00
2022-08-03T05:13:14.094Z,96812.25
2022-08-03T05:14:15.759Z,96811.31
2022-08-03T05:15:17.365Z,96816.00
2022-08-03T05:16:19.142Z,96817.19
2022-08-03T05:17:20.749Z,96817.38
2022-08-03T05:18:22.531Z,96812.94
2022-08-03T05:19:24.181Z,96818.06
2022-08-03T05:20:25.766Z,96811.88
2022-08-03T05:21:51.788Z,96810.47
2022-08-03T05:22:49.247Z,96811.88
2022-08-03T05:23:50.866Z,96817.50
2022-08-03T05:24:52.566Z,96817.19
2022-08-03T05:25:54.155Z,96820.81
2022-08-03T05:26:55.747Z,96819.59
2022-08-03T05:27:57.396Z,96819.25
2022-08-03T05:28:59.004Z,96816.13
2022-08-03T05:30:26.351Z,96826.03
2022-08-03T05:31:22.308Z,96822.00
2022-08-03T05:32:23.905Z,96819.06
2022-08-03T05:33:25.543Z,96822.16
2022-08-03T05:34:27.084Z,96816.34
2022-08-03T05:36:01.805Z,96814.38
2022-08-03T05:36:51.151Z,96824.22
2022-08-03T05:37:54.648Z,96820.31
2022-08-03T05:39:00.848Z,96823.16
2022-08-03T05:40:05.807Z,96820.50
2022-08-03T05:41:20.939Z,96825.78
2022-08-03T05:42:25.547Z,96815.81
2022-08-03T05:43:27.269Z,96819.56
2022-08-03T05:44:29.064Z,96820.38
2022-08-03T05:45:32.329Z,96820.13
2022-08-03T05:46:33.929Z,96829.94
2022-08-03T05:47:35.516Z,96827.84
2022-08-03T05:48:37.134Z,96825.31
2022-08-03T05:49:38.829Z,96828.72
2022-08-03T05:50:42.892Z,96822.75
2022-08-03T05:51:44.838Z,96825.75
2022-08-03T05:52:47.086Z,96824.66
2022-08-03T05:53:49.176Z,96823.00
2022-08-03T05:54:55.311Z,96827.16
2022-08-03T05:56:02.505Z,96831.81
2022-08-03T05:57:15.299Z,96830.22
2022-08-03T05:58:19.642Z,96833.44
2022-08-03T05:59:37.618Z,96834.63
2022-08-03T06:00:40.222Z,96837.88
2022-08-03T06:01:41.959Z,96830.34
2022-08-03T06:02:43.646Z,96829.09
2022-08-03T06:03:46.179Z,96826.63
2022-08-03T06:04:47.808Z,96829.75
2022-08-03T06:05:55.490Z,96827.00
2022-08-03T06:07:02.332Z,96821.00
2022-08-03T06:08:04.070Z,96832.03
2022-08-03T06:09:05.756Z,96829.38
2022-08-03T06:10:35.775Z,96822.81
2022-08-03T06:11:30.565Z,96828.69
2022-08-03T06:12:35.928Z,96827.91
2022-08-03T06:13:37.775Z,96827.44
2022-08-03T06:14:39.655Z,96824.69
2022-08-03T06:15:41.541Z,96830.53
2022-08-03T06:16:43.207Z,96826.22
2022-08-03T06:17:49.290Z,96822.22
2022-08-03T06:18:50.892Z,96817.88
2022-08-03T06:19:53.712Z,96822.81
2022-08-03T06:20:55.465Z,96815.53
2022-08-03T06:21:57.136Z,96824.31
2022-08-03T06:23:00.182Z,96819.72
2022-08-03T06:24:02.731Z,96818.22
2022-08-03T06:25:12.666Z,96823.09
2022-08-03T06:26:14.637Z,96817.75
2022-08-03T06:27:16.880Z,96811.78
2022-08-03T06:28:51.184Z,96815.91
2022-08-03T06:29:40.163Z,96808.19
2022-08-03T06:30:41.968Z,96810.94
2022-08-03T06:31:43.572Z,96815.06
2022-08-03T06:32:51.982Z,96814.84
2022-08-03T06:34:32.503Z,96824.38
2022-08-03T06:35:16.337Z,96818.47
2022-08-03T06:36:17.933Z,96818.38
2022-08-03T06:37:19.552Z,96816.53
2022-08-03T06:38:21.253Z,96819.53
2022-08-03T06:39:23.439Z,96821.81
2022-08-03T06:40:32.152Z,96816.88
2022-08-03T06:41:37.480Z,96824.72
2022-08-03T06:42:39.736Z,96814.72
2022-08-03T06:44:02.913Z,96813.81
2022-08-03T06:45:04.376Z,96821.59
2022-08-03T06:46:06.005Z,96817.22
2022-08-03T06:47:07.602Z,96812.13
2022-08-03T06:48:11.629Z,96814.22
2022-08-03T06:49:13.629Z,96813.16
2022-08-03T06:50:16.793Z,96822.41
2022-08-03T06:51:19.052Z,96816.72
2022-08-03T06:52:37.782Z,96819.03
2022-08-03T06:53:40.014Z,96817.22
2022-08-03T06:54:41.691Z,96812.97
2022-08-03T06:55:43.328Z,96814.88
2022-08-03T06:56:44.940Z,96810.34
2022-08-03T06:57:46.582Z,96803.47
2022-08-03T06:58:48.818Z,96811.03
2022-08-03T07:00:10.769Z,96813.31
2022-08-03T07:01:12.105Z,96809.94
2022-08-03T07:02:18.305Z,96815.31
2022-08-03T07:03:21.338Z,96812.56
2022-08-03T07:04:22.904Z,96813.47
2022-08-03T07:05:27.646Z,96809.34
2022-08-03T07:06:29.344Z,96808.25
2022-08-03T07:07:31.092Z,96809.47
2022-08-03T07:08:33.786Z,96807.56
2022-08-03T07:09:36.285Z,96809.97
2022-08-03T07:10:38.031Z,96803.25
2022-08-03T07:11:39.601Z,96808.38
2022-08-03T07:12:52.635Z,96804.72
2022-08-03T07:13:57.932Z,96809.06
2022-08-03T07:15:02.637Z,96808.13
2022-08-03T07:16:04.943Z,96803.75
2022-08-03T07:17:11.640Z,96806.00
2022-08-03T07:18:13.869Z,96805.31
2022-08-03T07:19:15.714Z,96807.31
2022-08-03T07:20:18.405Z,96804.28
2022-08-03T07:21:20.039Z,96803.81
2022-08-03T07:22:21.703Z,96814.72
2022-08-03T07:23:23.349Z,96809.81
2022-08-03T07:24:24.975Z,96806.41
2022-08-03T07:25:29.042Z,96803.31
2022-08-03T07:26:31.059Z,96811.22
2022-08-03T07:27:33.775Z,96797.66
2022-08-03T07:28:35.338Z,96807.72
2022-08-03T07:29:37.496Z,96809.09
2022-08-03T07:30:39.106Z,96811.63
2022-08-03T07:31:40.764Z,96804.44
2022-08-03T07:32:50.343Z,96808.56
2022-08-03T07:33:52.540Z,96811.88
2022-08-03T07:34:59.884Z,96800.13
2022-08-03T07:36:02.645Z,96801.59
2022-08-03T07:37:04.248Z,96804.31
2022-08-03T07:38:05.868Z,96801.59
2022-08-03T07:39:16.650Z,96801.53
2022-08-03T07:40:20.161Z,96800.84
2022-08-03T07:41:21.777Z,96799.16
2022-08-03T07:42:24.024Z,96799.97
2022-08-03T07:43:25.631Z,96804.22
2022-08-03T07:44:27.213Z,96798.91
2022-08-03T07:45:30.439Z,96794.78
2022-08-03T07:46:32.907Z,96790.31
2022-08-03T07:47:36.069Z,96798.09
2022-08-03T07:48:37.795Z,96788.69
2022-08-03T07:49:43.040Z,96793.66
2022-08-03T07:50:44.799Z,96795.63
2022-08-03T07:52:06.323Z,96790.28
2022-08-03T07:53:07.917Z,96793.81
2022-08-03T07:54:10.305Z,96794.97
2022-08-03T07:55:11.952Z,96795.09
2022-08-03T07:56:13.518Z,96790.38
2022-08-03T07:57:16.172Z,96790.75
2022-08-03T07:58:24.358Z,96787.41
2022-08-03T07:59:26.061Z,96795.72
2022-08-03T08:00:27.889Z,96789.78
2022-08-03T08:01:29.680Z,96785.59
2022-08-03T08:02:31.371Z,96787.28
2022-08-03T08:03:41.140Z,96784.81
2022-08-03T08:04:54.086Z,96787.34
2022-08-03T08:05:55.657Z,96781.00
2022-08-03T08:06:57.248Z,96782.34
2022-08-03T08:07:58.914Z,96790.00
2022-08-03T08:09:02.406Z,96789.22
2022-08-03T08:10:06.492Z,96790.38
2022-08-03T08:11:08.084Z,96788.22
2022-08-03T08:12:15.238Z,96785.56
2022-08-03T08:13:17.371Z,96784.25
2022-08-03T08:14:18.985Z,96784.94
2022-08-03T08:15:20.691Z,96787.97
2022-08-03T08:16:22.374Z,96787.72
2022-08-03T08:17:24.717Z,96788.59
2022-08-03T08:18:26.392Z,96786.31
2022-08-03T08:19:28.321Z,96779.63
2022-08-03T08:20:38.121Z,96780.00
2022-08-03T08:22:01.838Z,96785.03
2022-08-03T08:23:03.547Z,96781.63
2022-08-03T08:24:18.369Z,96778.44
2022-08-03T08:25:22.061Z,96780.44
2022-08-03T08:26:23.668Z,96783.22
2022-08-03T08:27:25.471Z,96775.63
2022-08-03T08:28:32.114Z,96780.38
2022-08-03T08:29:35.048Z,96777.25
2022-08-03T08:30:36.641Z,96774.78
2022-08-03T08:31:38.327Z,96774.19
2022-08-03T08:32:40.235Z,96772.34
2022-08-03T08:34:03.132Z,96773.31
2022-08-03T08:35:07.885Z,96771.38
2022-08-03T08:36:14.851Z,96769.00
2022-08-03T08:37:16.972Z,96766.47
2022-08-03T08:38:18.612Z,96767.41
2022-08-03T08:39:20.214Z,96774.66
2022-08-03T08:40:23.020Z,96765.63
2022-08-03T08:41:24.651Z,96770.25
2022-08-03T08:42:34.297Z,96762.09
2022-08-03T08:43:35.941Z,96763.66
2022-08-03T08:44:37.633Z,96764.06
2022-08-03T08:45:41.122Z,96761.81
2022-08-03T08:46:44.038Z,96762.97
2022-08-03T08:47:50.875Z,96755.81
2022-08-03T08:48:54.546Z,96755.72
2022-08-03T08:50:09.226Z,96763.94
2022-08-03T08:51:12.373Z,96759.16
2022-08-03T08:52:25.135Z,96762.44
2022-08-03T08:53:33.219Z,96748.00
2022-08-03T08:54:37.443Z,96748.09
2022-08-03T08:55:57.915Z,96756.44
2022-08-03T08:57:06.643Z,96745.41
2022-08-03T08:58:21.607Z,96745.69
2022-08-03T08:59:24.292Z,96748.44
2022-08-03T09:00:26.080Z,96752.44
2022-08-03T09:01:28.580Z,96748.78
2022-08-03T09:02:31.388Z,96739.56
2022-08-03T09:03:36.547Z,96742.91
2022-08-03T09:04:39.360Z,96733.44
2022-08-03T09:05:55.915Z,96739.56
2022-08-03T09:07:18.721Z,96736.09
2022-08-03T09:08:20.316Z,96728.28
2022-08-03T09:10:04.598Z,96728.28
2022-08-03T09:10:43.473Z,96732.97
2022-08-03T09:11:52.354Z,96731.09
2022-08-03T09:13:02.726Z,96731.84
2022-08-03T09:14:05.289Z,96733.53
2022-08-03T09:15:19.898Z,96731.56
2022-08-03T09:16:22.951Z,96731.38
2022-08-03T09:17:24.533Z,96734.00
2022-08-03T09:18:33.186Z,96732.84
2022-08-03T09:19:36.796Z,96731.84
2022-08-03T09:20:38.452Z,96732.72
2022-08-03T09:21:40.456Z,96726.28
2022-08-03T09:24:00.516Z,96731.28
2022-08-03T09:24:41.167Z,96728.78
2022-08-03T09:25:43.956Z,96737.41
2022-08-03T09:26:52.150Z,96728.38
2022-08-03T09:28:03.897Z,96732.72
2022-08-03T09:29:13.482Z,96733.84
2022-08-03T09:30:33.379Z,96726.66
2022-08-03T09:31:44.985Z,96726.44
2022-08-03T09:32:47.310Z,96729.19
2022-08-03T09:33:49.050Z,96727.63
2022-08-03T09:34:56.484Z,96728.22
2022-08-03T09:35:59.834Z,96723.50
2022-08-03T09:37:01.477Z,96723.06
2022-08-03T09:38:14.479Z,96728.22
2022-08-03T09:39:17.215Z,96723.91
2022-08-03T09:40:36.333Z,96716.88
2022-08-03T09:41:39.473Z,96726.09
2022-08-03T09:42:56.596Z,96723.03
2022-08-03T09:43:58.270Z,96718.66
2022-08-03T09:44:59.893Z,96719.34
2022-08-03T09:46:05.700Z,96714.81
2022-08-03T09:47:07.363Z,96715.13
2022-08-03T09:48:25.989Z,96717.41
2022-08-03T09:49:27.625Z,96714.22
2022-08-03T09:50:29.294Z,96709.63
2022-08-03T09:52:29.512Z,96712.75
2022-08-03T09:52:52.990Z,96708.09
2022-08-03T09:54:00.292Z,96702.88
2022-08-03T09:56:32.639Z,96697.31
2022-08-03T09:56:44.900Z,96703.28
2022-08-03T09:57:46.631Z,96697.31
2022-08-03T09:58:48.494Z,96697.31
2022-08-03T09:59:58.799Z,96697.66
2022-08-03T10:01:07.552Z,96692.31
2022-08-03T10:02:27.633Z,96690.56
2022-08-03T10:03:31.426Z,96684.66
2022-08-03T10:04:33.015Z,96694.84
2022-08-03T10:05:34.674Z,96685.53
2022-08-03T10:06:36.241Z,96684.56
2022-08-03T10:07:46.350Z,96678.69
2022-08-03T10:09:07.035Z,96673.47
2022-08-03T10:10:31.765Z,96681.59
2022-08-03T10:11:36.215Z,96675.69
2022-08-03T10:12:43.983Z,96666.72
2022-08-03T10:13:46.052Z,96671.28
2022-08-03T10:14:48.091Z,96678.44
2022-08-03T10:16:21.969Z,96673.13
2022-08-03T10:17:11.661Z,96669.41
2022-08-03T10:18:13.720Z,96675.00
2022-08-03T10:19:16.722Z,96675.94
2022-08-03T10:20:18.486Z,96670.81
2022-08-03T10:21:21.531Z,96675.19
2022-08-03T10:22:24.212Z,96669.16
2022-08-03T10:23:26.650Z,96671.25
2022-08-03T10:24:30.771Z,96667.75
2022-08-03T10:25:34.354Z,96662.19
2022-08-03T10:26:39.611Z,96664.81
2022-08-03T10:27:53.287Z,96658.84
2022-08-03T10:28:58.159Z,96654.81
2022-08-03T10:30:05.676Z,96652.75
2022-08-03T10:31:09.811Z,96657.34
2022-08-03T10:32:19.211Z,96649.66
2022-08-03T10:33:50.112Z,96658.63
2022-08-03T10:34:48.183Z,96656.44
2022-08-03T10:35:54.385Z,96652.81
2022-08-03T10:37:00.448Z,96653.97
2022-08-03T10:38:08.638Z,96650.06
2022-08-03T10:39:16.498Z,96648.56
2022-08-03T10:40:39.574Z,96655.06
2022-08-03T10:41:46.495Z,96647.84
2022-08-03T10:42:54.635Z,96645.41
2022-08-03T10:44:13.448Z,96648.81
2022-08-03T10:45:25.609Z,96652.44
2022-08-03T10:46:28.600Z,96638.56
2022-08-03T10:47:31.917Z,96646.88
2022-08-03T10:48:35.585Z,96641.03
2022-08-03T10:49:38.152Z,96638.56
2022-08-03T10:50:43.327Z,96638.41
2022-08-03T10:51:45.945Z,96640.75
2022-08-03T10:53:06.610Z,96639.31
2022-08-03T10:54:33.585Z,96633.28
2022-08-03T10:56:05.576Z,96628.28
2022-08-03T10:57:25.869Z,96635.06
2022-08-03T10:58:46.019Z,96634.22
2022-08-03T10:59:55.213Z,96623.81
2022-08-03T11:00:57.003Z,96624.50
2022-08-03T11:02:01.059Z,96629.69
2022-08-03T11:03:16.479Z,96615.63
2022-08-03T11:04:20.501Z,96623.81
2022-08-03T11:05:30.015Z,96622.63
2022-08-03T11:06:37.399Z,96620.56
2022-08-03T11:07:39.467Z,96622.50
2022-08-03T11:08:41.239Z,96613.91
2022-08-03T11:09:48.449Z,96619.25
2022-08-03T11:10:52.905Z,96616.19
2022-08-03T11:11:54.819Z,96623.16
2022-08-03T11:13:07.161Z,96623.06
2022-08-03T11:14:15.035Z,96615.00
2022-08-03T11:15:34.730Z,96614.56
2022-08-03T11:16:38.830Z,96608.13
2022-08-03T11:18:11.163Z,96624.69
2022-08-03T11:19:15.603Z,96625.94
2022-08-03T11:20:37.176Z,96628.22
2022-08-03T11:21:50.607Z,96616.50
2022-08-03T11:22:54.559Z,96621.94
2022-08-03T11:24:03.264Z,96617.06
2022-08-03T11:25:07.874Z,96618.31
2022-08-03T11:26:14.520Z,96610.34
2022-08-03T11:27:29.237Z,96613.78
2022-08-03T11:28:30.923Z,96618.38
2022-08-03T11:29:33.406Z,96607.00
2022-08-03T11:30:35.076Z,96615.31
2022-08-03T11:31:49.707Z,96606.13
2022-08-03T11:32:54.153Z,96611.09
2022-08-03T11:34:05.927Z,96605.53
2022-08-03T11:35:08.567Z,96605.53
2022-08-03T11:36:10.181Z,96603.34
2022-08-03T11:37:30.088Z,96608.78
2022-08-03T11:38:34.825Z,96602.31
2022-08-03T11:39:40.419Z,96599.81
2022-08-03T11:40:50.115Z,96599.03
2022-08-03T11:41:51.685Z,96598.69
2022-08-03T11:42:53.290Z,96601.84
2022-08-03T11:43:54.879Z,96596.41
2022-08-03T11:44:58.663Z,96594.50
2022-08-03T11:46:04.269Z,96603.81
2022-08-03T11:47:06.379Z,96598.00
2022-08-03T11:48:17.029Z,96595.16
2022-08-03T11:49:23.625Z,96592.28
2022-08-03T11:50:25.904Z,96581.94
2022-08-03T11:51:29.770Z,96574.25
2022-08-03T11:52:36.559Z,96575.22
2022-08-03T11:53:42.167Z,96571.22
2022-08-03T11:54:44.323Z,96583.16
2022-08-03T11:55:49.054Z,96578.31
2022-08-03T11:56:51.015Z,96575.16
2022-08-03T11:59:01.644Z,96582.22
2022-08-03T11:59:20.423Z,96578.81
2022-08-03T12:00:27.546Z,96581.72
2022-08-03T12:01:31.485Z,96570.44
2022-08-03T12:02:33.213Z,96574.56
2022-08-03T12:03:36.325Z,96575.41
2022-08-03T12:05:01.533Z,96573.03
2022-08-03T12:06:06.991Z,96577.34
2022-08-03T12:07:08.590Z,96578.78
2022-08-03T12:08:12.094Z,96582.91
2022-08-03T12:09:16.814Z,96580.75
2022-08-03T12:10:18.576Z,96584.13
2022-08-03T12:11:20.152Z,96580.00
2022-08-03T12:12:21.828Z,96584.19
2022-08-03T12:14:45.644Z,96577.78
2022-08-03T12:15:00.296Z,96577.13
2022-08-03T12:16:02.501Z,96567.56
2022-08-03T12:17:04.247Z,96570.47
2022-08-03T12:18:15.223Z,96570.88
2022-08-03T12:19:16.973Z,96557.56
2022-08-03T12:20:31.394Z,96573.34
2022-08-03T12:21:57.213Z,96569.66
2022-08-03T12:23:05.297Z,96571.22
2022-08-03T12:24:06.941Z,96566.25
2022-08-03T12:25:09.740Z,96562.81
2022-08-03T12:26:12.021Z,96566.81
2022-08-03T12:27:23.233Z,96564.75
2022-08-03T12:28:37.082Z,96572.00
2022-08-03T12:29:44.872Z,96571.81
2022-08-03T12:31:09.285Z,96572.16
2022-08-03T12:32:15.577Z,96573.88
2022-08-03T12:33:22.257Z,96567.88
2022-08-03T12:34:23.830Z,96566.03
2022-08-03T12:35:25.423Z,96567.00
2022-08-03T12:36:28.066Z,96563.09
2022-08-03T12:37:30.216Z,96561.34
2022-08-03T12:38:33.327Z,96569.66
2022-08-03T12:39:38.263Z,96562.03
2022-08-03T12:41:02.815Z,96570.63
2022-08-03T12:42:04.946Z,96577.53
2022-08-03T12:43:14.155Z,96570.88
2022-08-03T12:44:15.830Z,96570.09
2022-08-03T12:45:24.966Z,96552.66
2022-08-03T12:46:32.536Z,96558.38
2022-08-03T12:47:51.063Z,96556.47
2022-08-03T12:49:04.625Z,96558.94
2022-08-03T12:50:06.760Z,96551.72
2022-08-03T12:51:11.451Z,96554.31
2022-08-03T12:52:13.224Z,96561.09
2022-08-03T12:53:30.096Z,96569.53
2022-08-03T12:54:32.704Z,96570.47
2022-08-03T12:55:57.163Z,96568.84
2022-08-03T12:57:04.785Z,96564.53
2022-08-03T12:58:13.676Z,96569.41
2022-08-03T12:59:32.349Z,96574.28
2022-08-03T13:00:37.440Z,96567.59
2022-08-03T13:01:55.178Z,96566.16